.
Local / CommonContents

Fort Wayne - NE Ind.
U N D E R   C O N S T R U C T I O N

Northern Indiana (IWX) Radar

Latest IWX NEXRAD
Base Reflectivity



Latest IWX NEXRAD
Base Velocity

Indiana-Ohio Visible Satellite

For infrared and water vapor imagery, see Great Lakes - Midwest.

Current Conditions

Recent report from the Fort Wayne International Airport

Jun 17, 2019 - 09:54 PM EDT / 2019.06.18 0154 UTC


The skies are overcast. The temperature is 69.1 F (20.6 C) and the dew point is 64.0 F (17.8 C), giving a relative humidity of 83%. The barometric pressure is 29.97 in. Hg (1014 hPa). The wind is from the ENE (070 degrees) at 7 MPH (6 KT), and the visibility is 9 mile(s).

KFWA 180154Z 07006KT 9SM SCT040 BKN120 OVC200 21/18 A2997 RMK AO2 SLP146 T02060178
CoCoRaHS
IN-AL-39
A2 Web Hosting
Creative Commons License
GoDaddy
search engine by freefind advanced

loaded 2019-06-17 22:40:17 • last modified 2015-05-28 14:58:18
Privacy PolicyDisclaimer
• wx.awcolley.com is powered by PmWiki v.2002016 •
• all content (unless otherwise noted) © 2019 A W Colley